Time;durP1;ratioP1;P1;durP2;ratioP2;P2;SDS_P1;SDS_P2;PMS_P1;PMS_P2;Temp;Humidity;BMP_temperature;BMP_pressure;BME280_temperature;BME280_humidity;BME280_pressure;Samples;Min_cycle;Max_cycle;Signal;HPM_P1;HPM_P2
2022/11/03 00:01:40;;;;;;;12.27;3.25;;;;;;;12.83;62.25;101370.47;5038638;28;20109;-66
2022/11/03 00:04:11;;;;;;;14.00;3.60;;;;;;;12.82;62.49;101369.63;5047520;28;20033;-67
2022/11/03 00:06:37;;;;;;;12.32;2.95;;;;;;;12.81;62.47;101364.28;5031525;28;20136;-67
2022/11/03 00:09:08;;;;;;;11.02;2.97;;;;;;;12.78;62.70;101355.34;5037492;28;20120;-66
2022/11/03 00:11:34;;;;;;;12.48;2.58;;;;;;;12.73;62.46;101360.88;5030509;28;20033;-66
2022/11/03 00:14:00;;;;;;;19.15;3.60;;;;;;;12.72;62.27;101359.16;5029201;28;20044;-67
2022/11/03 00:16:25;;;;;;;13.95;3.00;;;;;;;12.68;62.81;101357.13;5053395;28;20024;-66
2022/11/03 00:18:51;;;;;;;17.20;3.65;;;;;;;12.70;62.86;101349.38;5070315;28;20108;-66
2022/11/03 00:21:17;;;;;;;11.57;2.90;;;;;;;12.75;62.56;101341.09;5070673;28;20468;-66
2022/11/03 00:23:43;;;;;;;11.93;3.05;;;;;;;12.75;62.92;101352.25;5048722;28;20430;-66
2022/11/03 00:26:12;;;;;;;12.18;3.22;;;;;;;12.76;62.46;101342.78;5035766;28;20045;-66
2022/11/03 00:28:39;;;;;;;16.88;3.25;;;;;;;12.73;62.40;101338.59;5047693;28;20029;-66
2022/11/03 00:31:08;;;;;;;12.45;3.15;;;;;;;12.75;62.66;101332.75;5052179;28;20056;-66
2022/11/03 00:33:33;;;;;;;12.80;2.92;;;;;;;12.78;62.68;101341.44;5044572;28;20060;-66
2022/11/03 00:36:00;;;;;;;14.45;3.45;;;;;;;12.78;62.47;101335.88;5051953;28;20083;-66
2022/11/03 00:38:26;;;;;;;16.10;3.22;;;;;;;12.80;62.21;101330.03;5063841;28;20032;-66
2022/11/03 00:41:02;;;;;;;16.83;3.10;;;;;;;12.80;62.49;101315.25;5073826;28;20433;-66
2022/11/03 00:43:29;;;;;;;16.23;3.28;;;;;;;12.81;62.04;101322.50;5050894;28;20045;-66
2022/11/03 00:45:54;;;;;;;11.57;3.17;;;;;;;12.82;62.35;101313.91;5041800;28;20017;-65
2022/11/03 00:48:31;;;;;;;12.77;3.00;;;;;;;12.84;62.17;101306.13;5053671;28;20503;-66
2022/11/03 00:51:25;;;;;;;15.32;2.92;;;;;;;12.85;62.04;101301.38;5045986;28;20026;-67
2022/11/03 00:53:58;;;;;;;12.13;3.05;;;;;;;12.76;62.28;101298.22;5063699;28;20108;-66
2022/11/03 00:56:28;;;;;;;13.02;2.92;;;;;;;12.73;62.58;101298.72;5073444;28;20033;-66
2022/11/03 00:58:55;;;;;;;9.93;3.15;;;;;;;12.71;62.84;101296.19;5053759;28;20029;-66
2022/11/03 01:01:21;;;;;;;12.85;2.55;;;;;;;12.74;62.66;101295.69;5039026;28;20049;-66
2022/11/03 01:06:48;;;;;;;13.45;3.53;;;;;;;12.70;63.01;101280.59;5034106;28;20099;-66
2022/11/03 01:09:14;;;;;;;18.98;3.70;;;;;;;12.73;62.94;101282.00;5044256;28;20424;-66
2022/11/03 01:11:42;;;;;;;11.38;2.78;;;;;;;12.72;62.52;101280.31;5054278;28;20108;-66
2022/11/03 01:14:13;;;;;;;10.68;2.53;;;;;;;12.74;62.55;101262.28;5048790;28;20112;-66
2022/11/03 01:16:39;;;;;;;10.10;2.55;;;;;;;12.73;62.60;101277.31;5052809;28;20493;-66
2022/11/03 01:19:05;;;;;;;12.57;2.90;;;;;;;12.76;62.70;101275.94;5033251;28;20030;-67
2022/11/03 01:21:30;;;;;;;15.93;2.85;;;;;;;12.71;63.13;101273.91;5032656;28;20025;-67
2022/11/03 01:23:55;;;;;;;9.65;2.42;;;;;;;12.75;62.92;101263.94;5046611;28;20043;-66
2022/11/03 01:26:21;;;;;;;12.82;2.75;;;;;;;12.78;62.54;101268.16;5046591;28;20477;-66
2022/11/03 01:28:47;;;;;;;12.40;2.75;;;;;;;12.78;62.81;101273.75;5033108;28;20066;-66
2022/11/03 01:31:19;;;;;;;12.15;2.78;;;;;;;12.79;62.93;101261.50;5042116;28;20021;-66
2022/11/03 01:33:45;;;;;;;12.68;2.63;;;;;;;12.87;62.38;101247.09;5053253;28;20103;-66
2022/11/03 01:36:12;;;;;;;10.85;3.22;;;;;;;12.88;62.65;101246.00;5050057;28;20052;-66
2022/11/03 01:38:38;;;;;;;11.95;2.92;;;;;;;12.91;62.26;101253.84;5035851;28;20380;-66
2022/11/03 01:41:06;;;;;;;11.38;2.88;;;;;;;12.91;62.71;101242.69;5034913;28;20041;-66
2022/11/03 01:43:31;;;;;;;14.45;3.05;;;;;;;12.89;62.68;101244.91;5033043;28;20412;-67
2022/11/03 01:46:11;;;;;;;16.17;2.80;;;;;;;12.85;63.01;101243.75;5032074;28;20036;-66
2022/11/03 01:48:41;;;;;;;13.10;3.40;;;;;;;12.88;62.54;101234.84;5049853;28;20088;-67
2022/11/03 01:51:10;;;;;;;12.10;2.60;;;;;;;12.86;62.82;101217.56;5033936;28;20060;-66
2022/11/03 01:53:40;;;;;;;11.15;2.85;;;;;;;12.80;63.37;101226.13;5033684;28;20025;-66
2022/11/03 01:56:06;;;;;;;14.63;3.40;;;;;;;12.79;63.30;101216.91;5032267;28;20021;-66
2022/11/03 01:58:36;;;;;;;14.43;3.13;;;;;;;12.81;63.08;101217.53;5032936;28;20500;-66
2022/11/03 02:01:02;;;;;;;12.70;2.83;;;;;;;12.81;63.41;101216.66;5040070;28;20472;-66
2022/11/03 02:03:32;;;;;;;10.00;2.70;;;;;;;12.82;63.63;101235.91;5036132;28;20025;-66
2022/11/03 02:05:58;;;;;;;8.48;2.72;;;;;;;12.83;63.50;101225.59;5032105;28;20432;-66
2022/11/03 02:08:37;;;;;;;14.55;3.17;;;;;;;12.81;63.21;101209.16;5052899;28;20020;-66
2022/11/03 02:12:05;;;;;;;12.98;2.67;;;;;;;12.82;63.72;101208.06;5047808;28;20876;-66
2022/11/03 02:13:47;;;;;;;11.52;2.67;;;;;;;12.81;63.49;101202.72;5042958;28;20033;-66
2022/11/03 02:16:13;;;;;;;8.18;2.55;;;;;;;12.84;63.71;101207.78;5052648;28;20400;-66
2022/11/03 02:18:40;;;;;;;14.77;3.30;;;;;;;12.86;63.56;101192.50;5052245;28;20397;-66
2022/11/03 02:21:23;;;;;;;10.48;2.70;;;;;;;12.82;63.63;101196.06;5046868;28;20029;-66
2022/11/03 02:23:56;;;;;;;12.05;3.22;;;;;;;12.85;63.20;101198.31;5046867;28;20170;-66
2022/11/03 02:26:21;;;;;;;13.88;2.70;;;;;;;12.81;63.66;101189.66;5051897;28;20137;-66
2022/11/03 02:28:47;;;;;;;13.48;3.28;;;;;;;12.84;63.29;101177.13;5046909;28;20489;-66
2022/11/03 02:31:37;;;;;;;10.48;2.67;;;;;;;12.87;63.04;101180.25;5032338;28;20033;-66
2022/11/03 02:34:16;;;;;;;12.75;2.80;;;;;;;12.84;63.68;101177.13;5032471;28;20029;-66
2022/11/03 02:36:58;;;;;;;11.70;2.83;;;;;;;12.84;63.26;101168.78;5032132;28;20037;-67
2022/11/03 02:39:37;;;;;;;13.10;3.03;;;;;;;12.87;63.42;101171.06;5052163;28;20037;-66
2022/11/03 02:42:04;;;;;;;15.10;3.42;;;;;;;12.81;63.56;101167.38;5042102;28;20041;-66
2022/11/03 02:44:32;;;;;;;13.35;3.20;;;;;;;12.83;63.40;101167.94;5051570;28;20078;-66
2022/11/03 02:47:01;;;;;;;14.25;3.28;;;;;;;12.78;64.00;101148.41;5050827;28;20025;-66
2022/11/03 02:49:27;;;;;;;13.93;3.03;;;;;;;12.78;63.71;101142.81;5044137;28;20034;-66
2022/11/03 02:52:04;;;;;;;13.15;2.90;;;;;;;12.72;63.92;101157.78;5045883;28;20091;-66
2022/11/03 02:54:43;;;;;;;13.98;3.20;;;;;;;12.70;64.12;101137.72;5033013;28;20370;-66
2022/11/03 02:57:12;;;;;;;12.13;3.42;;;;;;;12.68;64.07;101145.47;5045920;28;20056;-66
2022/11/03 02:59:55;;;;;;;8.57;2.47;;;;;;;12.72;64.15;101135.50;5034995;28;20366;-66
2022/11/03 03:02:31;;;;;;;11.02;2.78;;;;;;;12.69;64.44;101134.09;5049431;28;20068;-66
2022/11/03 03:05:00;;;;;;;10.02;2.92;;;;;;;12.68;64.69;101140.75;5037778;28;20037;-66
2022/11/03 03:07:30;;;;;;;9.20;2.85;;;;;;;12.70;64.46;101121.84;5037956;28;20037;-66
2022/11/03 03:10:05;;;;;;;12.77;2.92;;;;;;;12.70;64.33;101109.88;5038266;28;20037;-67
2022/11/03 03:12:35;;;;;;;14.60;3.25;;;;;;;12.67;64.52;101102.03;5041684;28;20108;-66
2022/11/03 03:15:04;;;;;;;11.38;2.97;;;;;;;12.69;64.90;101103.47;5044050;28;20032;-66
2022/11/03 03:17:40;;;;;;;14.43;2.70;;;;;;;12.70;64.90;101110.69;5050493;28;20086;-66
2022/11/03 03:20:32;;;;;;;13.65;2.85;;;;;;;12.70;64.52;101113.47;5047713;28;20584;-66
2022/11/03 03:23:19;;;;;;;11.52;2.75;;;;;;;12.73;64.59;101103.75;5047603;28;20041;-66
2022/11/03 03:25:54;;;;;;;12.65;2.70;;;;;;;12.72;64.78;101090.94;5043589;28;20045;-66
2022/11/03 03:28:31;;;;;;;14.48;2.70;;;;;;;12.67;65.26;101099.25;5036208;28;20044;-67
2022/11/03 03:31:00;;;;;;;12.80;3.10;;;;;;;12.67;65.19;101104.81;5045075;28;20033;-66
2022/11/03 03:33:27;;;;;;;12.77;3.17;;;;;;;12.68;64.75;101101.75;5046036;28;20085;-66
2022/11/03 03:35:54;;;;;;;10.30;2.58;;;;;;;12.68;64.83;101093.41;5033657;28;20143;-66
2022/11/03 03:38:26;;;;;;;11.52;2.78;;;;;;;12.67;64.98;101093.66;5029970;28;20033;-66
2022/11/03 03:40:56;;;;;;;12.32;3.28;;;;;;;12.64;65.20;101083.03;5031153;28;20021;-66
2022/11/03 03:43:25;;;;;;;13.10;2.90;;;;;;;12.65;65.08;101088.34;5029599;28;20033;-66
2022/11/03 03:45:53;;;;;;;8.80;2.50;;;;;;;12.63;65.44;101084.16;5030653;28;20108;-66
2022/11/03 03:48:19;;;;;;;15.40;3.05;;;;;;;12.66;65.28;101069.72;5030955;28;20037;-66
2022/11/03 03:50:46;;;;;;;20.13;3.35;;;;;;;12.66;65.71;101056.63;5033637;28;20032;-66
2022/11/03 03:53:12;;;;;;;13.65;3.10;;;;;;;12.67;65.65;101066.66;5050498;28;20102;-66
2022/11/03 03:55:46;;;;;;;11.75;2.90;;;;;;;12.65;65.73;101059.66;5042425;28;20045;-66
2022/11/03 03:58:13;;;;;;;13.77;3.10;;;;;;;12.66;65.39;101048.28;5041904;28;20040;-67
2022/11/03 04:00:39;;;;;;;7.35;2.70;;;;;;;12.66;65.52;101053.84;5033638;28;20031;-66
2022/11/03 04:03:08;;;;;;;12.07;3.13;;;;;;;12.69;65.68;101063.59;5034748;28;20080;-66
2022/11/03 04:05:33;;;;;;;11.93;3.17;;;;;;;12.68;66.13;101061.91;5037610;28;20116;-66
2022/11/03 04:07:59;;;;;;;12.52;3.25;;;;;;;12.68;66.16;101045.22;5036578;28;20108;-66
2022/11/03 04:10:24;;;;;;;14.20;3.20;;;;;;;12.67;66.13;101060.25;5036329;28;20367;-66
2022/11/03 04:23:56;;;;;;;9.82;2.97;;;;;;;12.71;66.50;101045.53;5034449;28;20048;-66
2022/11/03 04:26:21;;;;;;;11.05;2.80;;;;;;;12.71;66.29;101036.34;5055993;28;20383;-66
2022/11/03 04:28:48;;;;;;;12.77;2.97;;;;;;;12.70;66.80;101031.88;5055376;28;20526;-66
2022/11/03 04:31:16;;;;;;;7.85;2.65;;;;;;;12.66;66.86;101031.56;5040951;28;20033;-67
2022/11/03 04:33:42;;;;;;;10.88;3.03;;;;;;;12.67;66.77;101021.25;5034532;28;20486;-67
2022/11/03 04:36:18;;;;;;;8.35;2.88;;;;;;;12.67;67.16;101035.19;5042431;28;20037;-69
2022/11/03 04:38:44;;;;;;;10.20;2.63;;;;;;;12.66;67.06;101030.72;5041785;28;20037;-66
2022/11/03 04:41:31;;;;;;;9.93;2.75;;;;;;;12.70;66.67;101023.53;5043578;28;20058;-66
2022/11/03 04:43:57;;;;;;;11.85;2.90;;;;;;;12.67;67.37;101022.09;5038436;28;20550;-66
2022/11/03 04:46:27;;;;;;;9.18;2.90;;;;;;;12.67;67.07;101021.25;5065188;28;20040;-66
2022/11/03 04:48:55;;;;;;;14.95;3.08;;;;;;;12.66;67.64;101019.59;5072494;28;20077;-66
2022/11/03 04:51:25;;;;;;;12.82;3.08;;;;;;;12.63;67.51;101012.59;5071911;28;20432;-66
2022/11/03 04:54:14;;;;;;;10.63;2.90;;;;;;;12.67;67.46;101007.34;5039960;28;20017;-66
2022/11/03 04:56:40;;;;;;;13.60;2.75;;;;;;;12.61;67.98;101005.59;5037182;28;20037;-66
2022/11/03 04:59:11;;;;;;;11.07;2.90;;;;;;;12.57;68.27;100991.34;5038500;28;20043;-66
2022/11/03 05:01:36;;;;;;;11.32;2.80;;;;;;;12.59;68.15;100991.09;5048849;28;20405;-66
2022/11/03 05:04:10;;;;;;;12.00;2.75;;;;;;;12.62;68.17;100998.94;5072964;28;20150;-66
2022/11/03 05:06:35;;;;;;;11.75;3.17;;;;;;;12.61;68.13;100983.31;5058211;28;20025;-66
2022/11/03 05:09:11;;;;;;;10.68;2.88;;;;;;;12.62;68.44;100985.84;5041121;28;20103;-66
2022/11/03 05:11:38;;;;;;;12.60;3.17;;;;;;;12.59;68.71;100988.31;5053048;28;20028;-66
2022/11/03 05:14:33;;;;;;;11.43;2.42;;;;;;;12.66;68.09;100977.81;5041150;28;20500;-66
2022/11/03 05:17:00;;;;;;;12.80;2.67;;;;;;;12.67;68.63;100988.69;5038884;28;20041;-66
2022/11/03 05:19:32;;;;;;;9.27;2.42;;;;;;;12.66;68.30;100980.59;5041306;28;20056;-66
2022/11/03 05:22:00;;;;;;;10.30;2.53;;;;;;;12.67;68.91;100976.69;5053154;28;20037;-66
2022/11/03 05:24:25;;;;;;;12.18;2.30;;;;;;;12.69;68.54;100963.34;5050157;28;20072;-66
2022/11/03 05:26:53;;;;;;;14.25;3.40;;;;;;;12.67;69.23;100960.84;5053091;28;20048;-66
2022/11/03 05:29:22;;;;;;;8.02;2.83;;;;;;;12.69;68.80;100955.84;5044991;28;20037;-66
2022/11/03 05:31:47;;;;;;;14.57;3.47;;;;;;;12.71;69.09;100955.56;5044643;28;20432;-66
2022/11/03 05:34:39;;;;;;;11.73;2.70;;;;;;;12.73;68.57;100943.06;5044880;28;20033;-66
2022/11/03 05:37:21;;;;;;;14.65;3.50;;;;;;;12.73;69.08;100948.66;5034644;28;20079;-66
2022/11/03 05:39:48;;;;;;;15.38;3.00;;;;;;;12.73;69.08;100951.44;5033896;28;20033;-66
2022/11/03 05:42:30;;;;;;;11.07;2.85;;;;;;;12.72;69.30;100940.53;5032654;28;20040;-66
2022/11/03 05:44:56;;;;;;;10.77;2.30;;;;;;;12.69;69.50;100933.56;5054265;28;20175;-67
2022/11/03 05:47:26;;;;;;;13.88;3.38;;;;;;;12.71;69.63;100927.72;5045785;28;20366;-67
2022/11/03 05:50:05;;;;;;;10.25;2.78;;;;;;;12.72;69.64;100923.81;5032502;28;20040;-68
2022/11/03 05:52:30;;;;;;;11.45;3.30;;;;;;;12.74;69.69;100927.19;5030597;28;20045;-67
2022/11/03 05:54:58;;;;;;;12.40;3.25;;;;;;;12.74;70.09;100925.25;5035111;28;20076;-67
2022/11/03 05:57:24;;;;;;;10.23;3.05;;;;;;;12.73;69.82;100922.72;5034647;28;20108;-67
2022/11/03 05:59:51;;;;;;;13.90;3.17;;;;;;;12.72;69.78;100909.91;5048213;28;20033;-67
2022/11/03 06:02:37;;;;;;;12.68;3.10;;;;;;;12.74;69.14;100910.50;5035754;28;20057;-67
2022/11/03 06:05:23;;;;;;;7.60;2.58;;;;;;;12.73;69.56;100908.78;5059308;28;20037;-68
2022/11/03 06:07:53;;;;;;;10.25;3.00;;;;;;;12.74;69.73;100911.31;5036555;28;20060;-67
2022/11/03 06:10:39;;;;;;;8.15;2.90;;;;;;;12.76;69.41;100908.25;5053761;28;20173;-67
2022/11/03 06:13:15;;;;;;;14.07;2.90;;;;;;;12.75;69.92;100909.38;5053318;28;20033;-67
2022/11/03 06:15:46;;;;;;;13.10;3.13;;;;;;;12.74;69.88;100902.13;5048700;28;20036;-70
2022/11/03 06:18:17;;;;;;;12.45;2.83;;;;;;;12.75;70.14;100898.22;5041502;28;20043;-74
2022/11/03 06:20:49;;;;;;;13.82;2.85;;;;;;;12.75;69.79;100889.88;5040174;28;20032;-72
2022/11/03 06:23:16;;;;;;;11.17;3.20;;;;;;;12.74;69.75;100897.41;5036507;28;20114;-69
2022/11/03 06:25:42;;;;;;;9.50;3.38;;;;;;;12.70;70.37;100892.63;5039647;28;20511;-70
2022/11/03 06:28:20;;;;;;;11.65;3.15;;;;;;;12.75;69.54;100878.75;5035860;28;20060;-71
2022/11/03 06:30:46;;;;;;;10.48;2.63;;;;;;;12.75;69.90;100879.56;5041966;28;20026;-72
2022/11/03 06:33:17;;;;;;;12.93;2.92;;;;;;;12.78;69.51;100883.78;5042027;28;20033;-72
2022/11/03 06:35:43;;;;;;;10.50;3.10;;;;;;;12.79;69.60;100885.44;5044612;28;20123;-71
2022/11/03 06:38:17;;;;;;;12.52;3.22;;;;;;;12.83;69.58;100875.44;5036253;28;20109;-73
2022/11/03 06:40:42;;;;;;;11.30;2.80;;;;;;;12.78;69.93;100878.22;5030902;28;20036;-73
2022/11/03 06:43:17;;;;;;;10.20;3.30;;;;;;;12.78;69.93;100878.22;5036557;28;20032;-71
2022/11/03 06:46:00;;;;;;;11.55;2.83;;;;;;;12.78;69.91;100867.06;5044845;28;20029;-72
2022/11/03 06:48:28;;;;;;;8.10;2.53;;;;;;;12.77;69.67;100866.22;5048505;28;20037;-70
2022/11/03 06:50:55;;;;;;;9.75;2.67;;;;;;;12.76;70.11;100863.69;5032028;28;20048;-69
2022/11/03 06:53:24;;;;;;;11.30;3.38;;;;;;;12.80;69.87;100864.00;5033923;28;20043;-71
2022/11/03 06:55:52;;;;;;;11.23;2.85;;;;;;;12.80;69.83;100867.63;5030282;28;20043;-70
2022/11/03 06:58:27;;;;;;;13.25;3.25;;;;;;;12.80;69.96;100862.06;5031838;28;20074;-71
2022/11/03 07:00:56;;;;;;;11.35;3.22;;;;;;;12.79;69.83;100860.38;5049800;28;20032;-71
2022/11/03 07:03:29;;;;;;;13.75;3.20;;;;;;;12.81;69.48;100860.97;5043551;28;20036;-68
2022/11/03 07:06:00;;;;;;;15.52;3.20;;;;;;;12.80;69.24;100859.28;5040437;28;20028;-69
2022/11/03 07:08:30;;;;;;;11.77;3.28;;;;;;;12.80;69.90;100859.28;5041766;28;20083;-68
2022/11/03 07:11:01;;;;;;;15.32;3.20;;;;;;;12.81;69.26;100860.97;5041533;28;20481;-69
2022/11/03 07:13:28;;;;;;;15.32;3.22;;;;;;;12.79;69.47;100854.81;5038355;28;20423;-70
2022/11/03 07:15:54;;;;;;;13.23;3.15;;;;;;;12.78;69.24;100844.78;5035937;28;20041;-72
2022/11/03 07:18:24;;;;;;;12.95;2.70;;;;;;;12.82;69.12;100845.94;5038379;28;20151;-75
2022/11/03 07:20:52;;;;;;;13.55;2.80;;;;;;;12.80;69.43;100848.13;5038365;28;20059;-72
2022/11/03 07:23:22;;;;;;;11.55;3.20;;;;;;;12.81;69.46;100843.41;5039675;28;20469;-72
2022/11/03 07:25:53;;;;;;;9.82;3.30;;;;;;;12.82;69.23;100845.94;5041807;28;20039;-71
2022/11/03 07:28:20;;;;;;;12.63;3.03;;;;;;;12.83;68.72;100836.47;5042945;28;20139;-74
2022/11/03 07:30:45;;;;;;;8.57;3.00;;;;;;;12.81;68.85;100833.13;5028323;28;20036;-73
2022/11/03 07:33:19;;;;;;;8.00;2.75;;;;;;;12.83;69.02;100828.09;5042726;28;20024;-75
2022/11/03 07:35:46;;;;;;;13.38;3.50;;;;;;;12.85;68.67;100837.03;5041316;28;20049;-76
2022/11/03 07:38:17;;;;;;;11.20;3.05;;;;;;;12.89;68.99;100823.38;5035128;28;20060;-75
2022/11/03 07:40:42;;;;;;;15.30;3.65;;;;;;;12.88;68.86;100819.75;5035288;28;20543;-77
2022/11/03 07:43:28;;;;;;;8.82;2.47;;;;;;;12.93;68.42;100824.53;5030613;28;20041;-70
2022/11/03 07:45:56;;;;;;;13.38;3.03;;;;;;;12.91;68.76;100822.03;5046915;28;20065;-78
2022/11/03 07:48:42;;;;;;;11.85;2.92;;;;;;;12.94;68.49;100832.63;5048215;28;20025;-79
2022/11/03 07:51:29;;;;;;;7.13;2.72;;;;;;;12.98;68.23;100821.78;5039019;28;20442;-75
2022/11/03 07:54:00;;;;;;;12.50;3.38;;;;;;;12.96;67.70;100830.41;5042016;28;20036;-74
2022/11/03 07:56:28;;;;;;;14.32;3.47;;;;;;;12.96;68.22;100843.50;5034432;28;20132;-72
2022/11/03 07:59:00;;;;;;;11.05;2.72;;;;;;;12.95;68.41;100842.66;5048083;28;20028;-64
2022/11/03 08:01:28;;;;;;;14.10;2.55;;;;;;;12.96;68.17;100835.97;5031825;28;20025;-72
2022/11/03 08:04:00;;;;;;;10.45;2.85;;;;;;;12.99;68.12;100829.88;5036955;28;20087;-74
2022/11/03 08:06:26;;;;;;;10.23;2.65;;;;;;;12.98;68.19;100828.19;5032733;28;20048;-75
2022/11/03 08:08:51;;;;;;;8.93;2.85;;;;;;;12.99;67.76;100823.47;5050250;28;20428;-75
2022/11/03 08:11:16;;;;;;;13.90;2.80;;;;;;;12.97;68.04;100808.97;5046308;28;20453;-75
2022/11/03 08:13:42;;;;;;;8.68;2.13;;;;;;;13.01;68.08;100816.53;5030933;28;20025;-75
2022/11/03 08:16:07;;;;;;;13.10;2.78;;;;;;;12.99;67.70;100813.16;5029804;28;20536;-74
2022/11/03 08:18:32;;;;;;;13.95;2.88;;;;;;;13.02;68.01;100804.25;5029122;28;20046;-75
2022/11/03 08:20:57;;;;;;;7.90;2.75;;;;;;;13.03;67.71;100794.78;5030382;28;20529;-75
2022/11/03 08:23:23;;;;;;;9.07;2.92;;;;;;;13.03;67.26;100777.22;5029650;28;20026;-75
2022/11/03 08:25:48;;;;;;;9.18;2.72;;;;;;;13.01;67.27;100769.16;5036472;28;20060;-75
2022/11/03 08:28:13;;;;;;;13.98;3.30;;;;;;;13.02;67.34;100768.03;5062671;28;20034;-75
2022/11/03 08:30:39;;;;;;;14.93;3.00;;;;;;;13.06;67.47;100767.50;5029362;28;20025;-75
2022/11/03 08:33:04;;;;;;;12.48;2.95;;;;;;;13.08;67.77;100765.25;5028621;28;20149;-75
2022/11/03 08:35:29;;;;;;;10.45;2.97;;;;;;;13.10;67.35;100760.28;5028580;28;20094;-75
2022/11/03 08:37:55;;;;;;;12.60;3.38;;;;;;;13.10;67.64;100754.69;5044032;28;20025;-76
2022/11/03 08:40:20;;;;;;;10.18;2.72;;;;;;;13.11;67.26;100743.25;5050336;28;20036;-76
2022/11/03 08:42:45;;;;;;;14.48;3.00;;;;;;;13.10;67.18;100729.63;5071125;28;20456;-75
2022/11/03 08:45:11;;;;;;;10.65;2.90;;;;;;;13.11;67.00;100715.41;5066490;28;20048;-75
2022/11/03 08:47:37;;;;;;;11.68;3.00;;;;;;;13.12;67.12;100710.66;5032470;28;20478;-76
2022/11/03 08:50:03;;;;;;;10.48;2.65;;;;;;;13.13;67.36;100706.78;5043700;28;20086;-76
2022/11/03 08:52:28;;;;;;;12.80;2.97;;;;;;;13.15;67.11;100701.75;5052696;28;20025;-76
2022/11/03 08:54:54;;;;;;;9.18;2.83;;;;;;;13.17;66.95;100696.75;5052654;28;20051;-73
2022/11/03 08:57:19;;;;;;;14.75;2.60;;;;;;;13.17;66.61;100703.16;5052927;28;20545;-75
2022/11/03 08:59:44;;;;;;;7.70;2.30;;;;;;;13.18;66.51;100696.47;5052900;28;20033;-67
2022/11/03 09:02:09;;;;;;;11.88;2.50;;;;;;;13.22;66.88;100677.25;5051467;28;20036;-68
2022/11/03 09:04:35;;;;;;;9.88;2.70;;;;;;;13.25;66.51;100676.75;5055296;28;20077;-67
2022/11/03 09:07:00;;;;;;;33.58;5.43;;;;;;;13.29;65.96;100671.47;5073188;28;20689;-73
2022/11/03 09:09:25;;;;;;;34.08;4.38;;;;;;;13.30;66.14;100662.81;5065990;28;20033;-73
2022/11/03 09:11:50;;;;;;;68.07;8.88;;;;;;;13.33;66.09;100665.06;5053101;28;20412;-73
2022/11/03 09:14:16;;;;;;;13.05;3.58;;;;;;;13.38;65.99;100661.44;5058670;28;20081;-74
2022/11/03 09:16:41;;;;;;;11.90;2.40;;;;;;;13.40;65.89;100640.53;5071417;28;20479;-73
2022/11/03 09:19:06;;;;;;;11.48;2.92;;;;;;;13.42;65.21;100643.88;5066699;28;20025;-76
2022/11/03 09:21:31;;;;;;;11.75;2.72;;;;;;;13.44;64.90;100627.72;5044036;28;20021;-75
2022/11/03 09:23:58;;;;;;;12.05;3.30;;;;;;;13.46;64.92;100611.53;5071757;28;20063;-74
2022/11/03 09:26:25;;;;;;;10.57;2.30;;;;;;;13.47;65.42;100609.56;5072553;28;20028;-74
2022/11/03 09:28:50;;;;;;;7.30;2.30;;;;;;;13.48;64.94;100600.13;5072031;28;20158;-75
2022/11/03 09:31:16;;;;;;;13.07;2.55;;;;;;;13.51;65.11;100588.38;5072226;28;20107;-75
2022/11/03 09:33:41;;;;;;;11.60;3.00;;;;;;;13.53;64.78;100588.97;5071854;28;20497;-75
2022/11/03 09:36:07;;;;;;;10.13;2.38;;;;;;;13.54;64.60;100584.22;5064349;28;20049;-75
2022/11/03 09:38:32;;;;;;;7.70;2.47;;;;;;;13.53;64.51;100576.97;5067722;28;20093;-75
2022/11/03 09:40:58;;;;;;;8.02;2.08;;;;;;;13.54;64.67;100578.63;5056210;28;20611;-75
2022/11/03 09:43:24;;;;;;;8.63;2.90;;;;;;;13.54;64.57;100576.69;5048004;28;20029;-74
2022/11/03 09:45:49;;;;;;;10.73;2.38;;;;;;;13.56;64.42;100568.88;5055788;28;20111;-75
2022/11/03 09:48:17;;;;;;;9.73;2.60;;;;;;;13.58;64.22;100563.00;5031852;28;20386;-74
2022/11/03 09:50:42;;;;;;;8.40;2.10;;;;;;;13.59;64.16;100561.88;5031428;28;20029;-75
2022/11/03 09:53:11;;;;;;;9.43;2.33;;;;;;;13.60;64.04;100555.22;5032409;28;20044;-75
2022/11/03 09:55:38;;;;;;;7.28;2.65;;;;;;;13.61;64.44;100551.31;5031857;28;20036;-74
2022/11/03 09:58:12;;;;;;;8.25;2.53;;;;;;;13.62;64.29;100547.38;5031185;28;20026;-74
2022/11/03 10:00:38;;;;;;;10.38;2.20;;;;;;;13.61;63.94;100540.16;5044051;28;20074;-74
2022/11/03 10:03:03;;;;;;;9.27;2.83;;;;;;;13.61;64.10;100538.19;5048190;28;20045;-74
2022/11/03 10:05:29;;;;;;;10.82;2.38;;;;;;;13.62;64.38;100536.22;5050735;28;20032;-74
2022/11/03 10:08:05;;;;;;;6.35;2.35;;;;;;;13.61;64.04;100540.16;5051738;28;20029;-74
2022/11/03 10:10:32;;;;;;;9.63;2.30;;;;;;;13.60;64.07;100527.34;5051404;28;20090;-74
2022/11/03 10:12:59;;;;;;;11.93;2.70;;;;;;;13.62;63.86;100533.44;5050913;28;20035;-74
2022/11/03 10:15:26;;;;;;;8.10;2.97;;;;;;;13.61;64.48;100523.41;5057070;28;20102;-74
2022/11/03 10:17:52;;;;;;;9.40;2.65;;;;;;;13.62;64.22;100525.06;5065186;28;20383;-74
2022/11/03 10:20:20;;;;;;;12.07;2.25;;;;;;;13.63;63.98;100516.41;5041457;28;20029;-74
2022/11/03 10:22:49;;;;;;;10.75;2.35;;;;;;;13.65;63.98;100513.38;5031896;28;20084;-74
2022/11/03 10:25:35;;;;;;;9.10;2.38;;;;;;;13.64;64.15;100512.53;5056461;28;20107;-74
2022/11/03 10:28:11;;;;;;;11.23;2.70;;;;;;;13.64;63.98;100506.97;5071658;28;20028;-74
2022/11/03 10:31:05;;;;;;;7.65;2.60;;;;;;;13.66;64.11;100501.91;5071289;28;20675;-74
2022/11/03 10:33:33;;;;;;;8.27;2.60;;;;;;;13.65;63.72;100500.25;5069896;28;20028;-74
2022/11/03 10:36:04;;;;;;;8.30;2.60;;;;;;;13.65;64.16;100493.84;5066878;28;20037;-77
2022/11/03 10:38:35;;;;;;;10.50;2.60;;;;;;;13.66;64.02;100485.19;5046148;28;20031;-73
2022/11/03 10:41:21;;;;;;;6.93;2.55;;;;;;;13.69;63.94;100487.41;5042487;28;20033;-74
2022/11/03 10:44:27;;;;;;;12.00;2.95;;;;;;;13.74;63.87;100479.03;5047097;28;20033;-76
2022/11/03 10:46:57;;;;;;;6.28;2.33;;;;;;;13.74;63.59;100481.81;5064918;28;20029;-78
2022/11/03 10:49:23;;;;;;;7.63;2.83;;;;;;;13.78;63.17;100482.09;5075406;28;20050;-75
2022/11/03 10:51:51;;;;;;;11.00;2.90;;;;;;;13.80;63.06;100477.06;5053124;28;20763;-77
2022/11/03 10:54:19;;;;;;;5.93;2.30;;;;;;;13.84;63.22;100475.38;5044774;28;20040;-78
2022/11/03 10:56:46;;;;;;;11.00;2.67;;;;;;;13.87;62.95;100468.38;5038954;28;20021;-78
2022/11/03 10:59:19;;;;;;;10.90;2.70;;;;;;;13.88;62.82;100468.13;5042977;28;20037;-75
2022/11/03 11:01:45;;;;;;;11.35;2.30;;;;;;;13.90;62.69;100460.28;5047103;28;20079;-73
2022/11/03 11:04:15;;;;;;;9.65;2.13;;;;;;;13.92;62.48;100452.47;5045624;28;20041;-70
2022/11/03 11:06:41;;;;;;;6.03;2.28;;;;;;;13.96;62.58;100449.94;5036604;28;20112;-70
2022/11/03 11:09:11;;;;;;;10.40;2.30;;;;;;;13.98;62.02;100445.72;5029337;28;20184;-70
2022/11/03 11:11:36;;;;;;;7.72;2.60;;;;;;;13.99;62.23;100447.44;5048538;28;20041;-72
2022/11/03 11:14:24;;;;;;;6.47;2.13;;;;;;;14.03;61.91;100446.84;5045103;28;20123;-78
2022/11/03 11:16:54;;;;;;;5.65;2.25;;;;;;;14.03;61.38;100447.69;5048945;28;20040;-72
2022/11/03 11:19:21;;;;;;;7.00;2.20;;;;;;;14.04;61.41;100442.94;5053634;28;20020;-66
2022/11/03 11:21:46;;;;;;;8.98;2.65;;;;;;;14.05;61.26;100436.22;5047344;28;20118;-75
2022/11/03 11:24:12;;;;;;;8.40;2.30;;;;;;;14.06;61.23;100418.34;5039076;28;20099;-77
2022/11/03 11:26:38;;;;;;;7.15;2.17;;;;;;;14.06;61.06;100426.72;5045761;28;20052;-76
2022/11/03 11:29:16;;;;;;;6.20;2.28;;;;;;;14.08;61.10;100421.72;5037818;28;20033;-79
2022/11/03 11:31:42;;;;;;;10.32;2.35;;;;;;;14.09;61.16;100417.78;5026887;28;20759;-79
2022/11/03 11:34:07;;;;;;;7.25;2.65;;;;;;;14.12;60.91;100397.69;5030969;28;20630;-73
2022/11/03 11:36:33;;;;;;;8.18;2.13;;;;;;;14.13;61.53;100379.81;5035349;28;20073;-74
2022/11/03 11:39:00;;;;;;;7.60;2.60;;;;;;;14.16;61.51;100373.66;5042194;28;20029;-75
2022/11/03 11:42:03;;;;;;;8.98;2.58;;;;;;;14.21;61.39;100365.25;5035563;28;20029;-75
2022/11/03 11:45:02;;;;;;;10.27;2.40;;;;;;;14.22;60.82;100359.38;5036845;28;20444;-74
2022/11/03 11:47:33;;;;;;;11.32;2.20;;;;;;;14.23;60.50;100363.00;5041945;28;20040;-73